sensor_id;sensor_type;location;lat;lon;timestamp;P1;durP1;ratioP1;P2;durP2;ratioP2
10811;SDS011;5458;51.496;7.334;2023-02-01T00:01:19;27.77;;;14.63;;
10811;SDS011;5458;51.496;7.334;2023-02-01T00:03:45;26.67;;;14.38;;
10811;SDS011;5458;51.496;7.334;2023-02-01T00:06:10;24.33;;;13.38;;
10811;SDS011;5458;51.496;7.334;2023-02-01T00:08:36;21.00;;;12.45;;
10811;SDS011;5458;51.496;7.334;2023-02-01T00:11:03;22.40;;;13.73;;
10811;SDS011;5458;51.496;7.334;2023-02-01T00:13:30;24.08;;;12.68;;
10811;SDS011;5458;51.496;7.334;2023-02-01T00:18:47;16.13;;;10.52;;
10811;SDS011;5458;51.496;7.334;2023-02-01T00:21:14;23.75;;;11.00;;
10811;SDS011;5458;51.496;7.334;2023-02-01T00:23:41;18.23;;;10.23;;
10811;SDS011;5458;51.496;7.334;2023-02-01T00:26:10;20.20;;;9.93;;
10811;SDS011;5458;51.496;7.334;2023-02-01T00:28:46;17.50;;;10.30;;
10811;SDS011;5458;51.496;7.334;2023-02-01T00:31:11;17.08;;;8.40;;
10811;SDS011;5458;51.496;7.334;2023-02-01T00:33:37;17.52;;;9.30;;
10811;SDS011;5458;51.496;7.334;2023-02-01T00:36:03;19.45;;;7.57;;
10811;SDS011;5458;51.496;7.334;2023-02-01T00:38:31;14.27;;;6.95;;
10811;SDS011;5458;51.496;7.334;2023-02-01T00:41:05;18.05;;;7.57;;
10811;SDS011;5458;51.496;7.334;2023-02-01T00:43:33;17.55;;;8.05;;
10811;SDS011;5458;51.496;7.334;2023-02-01T00:45:59;15.65;;;6.57;;
10811;SDS011;5458;51.496;7.334;2023-02-01T00:48:25;13.48;;;5.97;;
10811;SDS011;5458;51.496;7.334;2023-02-01T00:50:51;15.75;;;6.50;;
10811;SDS011;5458;51.496;7.334;2023-02-01T00:53:17;13.73;;;6.28;;
10811;SDS011;5458;51.496;7.334;2023-02-01T00:55:49;13.32;;;5.55;;
10811;SDS011;5458;51.496;7.334;2023-02-01T00:58:14;11.45;;;4.70;;
10811;SDS011;5458;51.496;7.334;2023-02-01T01:00:40;10.80;;;5.90;;
10811;SDS011;5458;51.496;7.334;2023-02-01T01:03:06;14.13;;;5.90;;
10811;SDS011;5458;51.496;7.334;2023-02-01T01:05:48;16.77;;;6.32;;
10811;SDS011;5458;51.496;7.334;2023-02-01T01:08:15;15.35;;;5.88;;
10811;SDS011;5458;51.496;7.334;2023-02-01T01:10:41;13.73;;;5.35;;
10811;SDS011;5458;51.496;7.334;2023-02-01T01:13:08;16.42;;;5.70;;
10811;SDS011;5458;51.496;7.334;2023-02-01T01:15:37;15.27;;;5.15;;
10811;SDS011;5458;51.496;7.334;2023-02-01T01:18:04;11.90;;;5.30;;
10811;SDS011;5458;51.496;7.334;2023-02-01T01:20:30;13.77;;;5.47;;
10811;SDS011;5458;51.496;7.334;2023-02-01T01:22:55;16.33;;;5.25;;
10811;SDS011;5458;51.496;7.334;2023-02-01T01:25:21;11.98;;;5.75;;
10811;SDS011;5458;51.496;7.334;2023-02-01T01:27:47;17.02;;;5.80;;
10811;SDS011;5458;51.496;7.334;2023-02-01T01:30:12;12.13;;;4.72;;
10811;SDS011;5458;51.496;7.334;2023-02-01T01:32:38;10.25;;;4.93;;
10811;SDS011;5458;51.496;7.334;2023-02-01T01:35:04;11.48;;;4.82;;
10811;SDS011;5458;51.496;7.334;2023-02-01T01:37:30;12.90;;;6.60;;
10811;SDS011;5458;51.496;7.334;2023-02-01T01:39:56;15.82;;;5.05;;
10811;SDS011;5458;51.496;7.334;2023-02-01T01:42:22;10.70;;;5.55;;
10811;SDS011;5458;51.496;7.334;2023-02-01T01:44:56;13.73;;;5.00;;
10811;SDS011;5458;51.496;7.334;2023-02-01T01:47:33;16.23;;;5.75;;
10811;SDS011;5458;51.496;7.334;2023-02-01T01:50:05;16.33;;;6.18;;
10811;SDS011;5458;51.496;7.334;2023-02-01T01:52:35;10.23;;;5.63;;
10811;SDS011;5458;51.496;7.334;2023-02-01T01:55:02;15.57;;;5.22;;
10811;SDS011;5458;51.496;7.334;2023-02-01T01:57:31;14.05;;;5.07;;
10811;SDS011;5458;51.496;7.334;2023-02-01T02:00:03;15.85;;;6.25;;
10811;SDS011;5458;51.496;7.334;2023-02-01T02:02:33;10.13;;;5.85;;
10811;SDS011;5458;51.496;7.334;2023-02-01T02:04:59;15.80;;;5.55;;
10811;SDS011;5458;51.496;7.334;2023-02-01T02:07:26;9.38;;;5.22;;
10811;SDS011;5458;51.496;7.334;2023-02-01T02:09:55;10.18;;;5.13;;
10811;SDS011;5458;51.496;7.334;2023-02-01T02:12:21;15.23;;;5.95;;
10811;SDS011;5458;51.496;7.334;2023-02-01T02:14:47;10.77;;;5.25;;
10811;SDS011;5458;51.496;7.334;2023-02-01T02:17:25;16.38;;;5.68;;
10811;SDS011;5458;51.496;7.334;2023-02-01T02:20:22;10.40;;;6.20;;
10811;SDS011;5458;51.496;7.334;2023-02-01T02:34:38;11.05;;;5.85;;
10811;SDS011;5458;51.496;7.334;2023-02-01T02:37:26;17.40;;;6.40;;
10811;SDS011;5458;51.496;7.334;2023-02-01T02:40:07;13.20;;;5.57;;
10811;SDS011;5458;51.496;7.334;2023-02-01T02:42:58;12.80;;;5.63;;
10811;SDS011;5458;51.496;7.334;2023-02-01T02:46:04;13.10;;;5.50;;
10811;SDS011;5458;51.496;7.334;2023-02-01T02:51:55;14.80;;;5.25;;
10811;SDS011;5458;51.496;7.334;2023-02-01T02:54:45;15.70;;;5.10;;
10811;SDS011;5458;51.496;7.334;2023-02-01T03:00:07;9.98;;;4.60;;
10811;SDS011;5458;51.496;7.334;2023-02-01T03:02:54;11.70;;;5.13;;
10811;SDS011;5458;51.496;7.334;2023-02-01T03:05:45;8.80;;;5.03;;
10811;SDS011;5458;51.496;7.334;2023-02-01T03:08:18;15.20;;;4.95;;
10811;SDS011;5458;51.496;7.334;2023-02-01T03:10:58;9.48;;;4.80;;
10811;SDS011;5458;51.496;7.334;2023-02-01T03:13:51;12.93;;;4.60;;
10811;SDS011;5458;51.496;7.334;2023-02-01T03:16:31;8.27;;;4.28;;
10811;SDS011;5458;51.496;7.334;2023-02-01T03:21:59;11.30;;;4.85;;
10811;SDS011;5458;51.496;7.334;2023-02-01T03:24:32;9.68;;;4.78;;
10811;SDS011;5458;51.496;7.334;2023-02-01T03:29:49;12.00;;;4.10;;
10811;SDS011;5458;51.496;7.334;2023-02-01T03:32:26;16.90;;;4.90;;
10811;SDS011;5458;51.496;7.334;2023-02-01T03:34:51;14.88;;;4.47;;
10811;SDS011;5458;51.496;7.334;2023-02-01T03:37:25;7.85;;;4.00;;
10811;SDS011;5458;51.496;7.334;2023-02-01T03:40:04;14.07;;;4.85;;
10811;SDS011;5458;51.496;7.334;2023-02-01T03:45:06;9.82;;;4.72;;
10811;SDS011;5458;51.496;7.334;2023-02-01T03:47:45;12.85;;;4.10;;
10811;SDS011;5458;51.496;7.334;2023-02-01T03:50:14;16.20;;;4.50;;
10811;SDS011;5458;51.496;7.334;2023-02-01T03:52:47;15.80;;;4.47;;
10811;SDS011;5458;51.496;7.334;2023-02-01T03:55:18;14.68;;;5.22;;
10811;SDS011;5458;51.496;7.334;2023-02-01T03:57:50;10.88;;;5.15;;
10811;SDS011;5458;51.496;7.334;2023-02-01T04:00:20;17.05;;;5.00;;
10811;SDS011;5458;51.496;7.334;2023-02-01T04:02:47;15.43;;;4.70;;
10811;SDS011;5458;51.496;7.334;2023-02-01T04:05:14;14.20;;;5.57;;
10811;SDS011;5458;51.496;7.334;2023-02-01T04:07:39;15.95;;;4.68;;
10811;SDS011;5458;51.496;7.334;2023-02-01T04:10:05;14.65;;;4.30;;
10811;SDS011;5458;51.496;7.334;2023-02-01T04:12:31;15.43;;;4.57;;
10811;SDS011;5458;51.496;7.334;2023-02-01T04:14:57;13.63;;;4.90;;
10811;SDS011;5458;51.496;7.334;2023-02-01T04:17:23;13.55;;;4.70;;
10811;SDS011;5458;51.496;7.334;2023-02-01T04:19:48;10.32;;;4.68;;
10811;SDS011;5458;51.496;7.334;2023-02-01T04:22:14;14.27;;;5.20;;
10811;SDS011;5458;51.496;7.334;2023-02-01T04:24:40;16.42;;;4.90;;
10811;SDS011;5458;51.496;7.334;2023-02-01T04:27:06;12.68;;;4.30;;
10811;SDS011;5458;51.496;7.334;2023-02-01T04:29:31;13.95;;;4.47;;
10811;SDS011;5458;51.496;7.334;2023-02-01T04:31:57;17.02;;;5.65;;
10811;SDS011;5458;51.496;7.334;2023-02-01T04:34:22;14.30;;;5.05;;
10811;SDS011;5458;51.496;7.334;2023-02-01T04:36:49;12.10;;;4.45;;
10811;SDS011;5458;51.496;7.334;2023-02-01T04:39:15;14.77;;;4.82;;
10811;SDS011;5458;51.496;7.334;2023-02-01T04:41:41;11.65;;;4.72;;
10811;SDS011;5458;51.496;7.334;2023-02-01T04:44:08;10.25;;;4.55;;
10811;SDS011;5458;51.496;7.334;2023-02-01T04:46:38;11.55;;;4.65;;
10811;SDS011;5458;51.496;7.334;2023-02-01T04:49:04;17.25;;;4.78;;
10811;SDS011;5458;51.496;7.334;2023-02-01T04:51:29;16.05;;;4.35;;
10811;SDS011;5458;51.496;7.334;2023-02-01T04:53:55;13.05;;;4.85;;
10811;SDS011;5458;51.496;7.334;2023-02-01T04:56:21;13.32;;;4.65;;
10811;SDS011;5458;51.496;7.334;2023-02-01T04:58:47;12.85;;;5.15;;
10811;SDS011;5458;51.496;7.334;2023-02-01T05:01:12;12.85;;;5.40;;
10811;SDS011;5458;51.496;7.334;2023-02-01T05:03:38;12.98;;;5.22;;
10811;SDS011;5458;51.496;7.334;2023-02-01T05:06:03;14.18;;;5.15;;
10811;SDS011;5458;51.496;7.334;2023-02-01T05:08:30;17.77;;;4.88;;
10811;SDS011;5458;51.496;7.334;2023-02-01T05:10:56;15.07;;;5.40;;
10811;SDS011;5458;51.496;7.334;2023-02-01T05:13:21;18.45;;;5.18;;
10811;SDS011;5458;51.496;7.334;2023-02-01T05:16:06;20.25;;;6.15;;
10811;SDS011;5458;51.496;7.334;2023-02-01T05:18:31;16.95;;;4.80;;
10811;SDS011;5458;51.496;7.334;2023-02-01T05:20:57;16.60;;;5.32;;
10811;SDS011;5458;51.496;7.334;2023-02-01T05:23:23;11.70;;;5.57;;
10811;SDS011;5458;51.496;7.334;2023-02-01T05:25:48;14.32;;;5.20;;
10811;SDS011;5458;51.496;7.334;2023-02-01T05:28:14;21.30;;;6.38;;
10811;SDS011;5458;51.496;7.334;2023-02-01T05:30:39;19.63;;;4.90;;
10811;SDS011;5458;51.496;7.334;2023-02-01T05:33:05;20.73;;;5.70;;
10811;SDS011;5458;51.496;7.334;2023-02-01T05:35:30;16.85;;;5.28;;
10811;SDS011;5458;51.496;7.334;2023-02-01T05:37:56;17.27;;;4.97;;
10811;SDS011;5458;51.496;7.334;2023-02-01T05:40:21;10.18;;;4.80;;
10811;SDS011;5458;51.496;7.334;2023-02-01T05:42:47;28.42;;;6.35;;
10811;SDS011;5458;51.496;7.334;2023-02-01T05:45:13;12.60;;;4.70;;
10811;SDS011;5458;51.496;7.334;2023-02-01T05:47:38;19.45;;;6.45;;
10811;SDS011;5458;51.496;7.334;2023-02-01T05:50:04;11.93;;;4.78;;
10811;SDS011;5458;51.496;7.334;2023-02-01T05:52:30;14.88;;;5.53;;
10811;SDS011;5458;51.496;7.334;2023-02-01T05:54:56;16.13;;;6.05;;
10811;SDS011;5458;51.496;7.334;2023-02-01T05:57:22;15.93;;;5.47;;
10811;SDS011;5458;51.496;7.334;2023-02-01T05:59:47;18.30;;;5.05;;
10811;SDS011;5458;51.496;7.334;2023-02-01T06:02:13;13.23;;;4.95;;
10811;SDS011;5458;51.496;7.334;2023-02-01T06:04:40;16.40;;;5.20;;
10811;SDS011;5458;51.496;7.334;2023-02-01T06:07:06;16.35;;;5.43;;
10811;SDS011;5458;51.496;7.334;2023-02-01T06:09:34;16.08;;;4.57;;
10811;SDS011;5458;51.496;7.334;2023-02-01T06:12:00;16.48;;;5.70;;
10811;SDS011;5458;51.496;7.334;2023-02-01T06:14:26;14.00;;;4.32;;
10811;SDS011;5458;51.496;7.334;2023-02-01T06:16:52;13.05;;;5.05;;
10811;SDS011;5458;51.496;7.334;2023-02-01T06:19:19;14.60;;;5.80;;
10811;SDS011;5458;51.496;7.334;2023-02-01T06:21:45;13.85;;;5.50;;
10811;SDS011;5458;51.496;7.334;2023-02-01T06:24:10;12.50;;;5.82;;
10811;SDS011;5458;51.496;7.334;2023-02-01T06:26:36;16.30;;;5.20;;
10811;SDS011;5458;51.496;7.334;2023-02-01T06:29:02;17.60;;;5.25;;
10811;SDS011;5458;51.496;7.334;2023-02-01T06:31:27;17.00;;;4.82;;
10811;SDS011;5458;51.496;7.334;2023-02-01T06:33:53;18.17;;;4.75;;
10811;SDS011;5458;51.496;7.334;2023-02-01T06:36:19;20.95;;;6.35;;
10811;SDS011;5458;51.496;7.334;2023-02-01T06:38:46;25.17;;;5.90;;
10811;SDS011;5458;51.496;7.334;2023-02-01T06:41:12;14.82;;;5.30;;
10811;SDS011;5458;51.496;7.334;2023-02-01T06:43:38;11.10;;;5.05;;
10811;SDS011;5458;51.496;7.334;2023-02-01T06:46:05;15.63;;;6.03;;
10811;SDS011;5458;51.496;7.334;2023-02-01T06:48:36;18.60;;;6.25;;
10811;SDS011;5458;51.496;7.334;2023-02-01T06:51:01;19.25;;;5.38;;
10811;SDS011;5458;51.496;7.334;2023-02-01T06:53:27;13.35;;;5.05;;
10811;SDS011;5458;51.496;7.334;2023-02-01T06:55:57;13.75;;;5.38;;
10811;SDS011;5458;51.496;7.334;2023-02-01T06:58:27;20.63;;;4.70;;
10811;SDS011;5458;51.496;7.334;2023-02-01T07:00:54;13.70;;;5.20;;
10811;SDS011;5458;51.496;7.334;2023-02-01T07:03:20;13.95;;;5.55;;
10811;SDS011;5458;51.496;7.334;2023-02-01T07:05:45;16.02;;;6.85;;
10811;SDS011;5458;51.496;7.334;2023-02-01T07:08:11;12.20;;;4.93;;
10811;SDS011;5458;51.496;7.334;2023-02-01T07:10:36;12.50;;;5.22;;
10811;SDS011;5458;51.496;7.334;2023-02-01T07:13:02;13.07;;;6.10;;
10811;SDS011;5458;51.496;7.334;2023-02-01T07:15:28;12.27;;;4.45;;
10811;SDS011;5458;51.496;7.334;2023-02-01T07:17:54;13.32;;;4.90;;
10811;SDS011;5458;51.496;7.334;2023-02-01T07:20:20;21.88;;;6.13;;
10811;SDS011;5458;51.496;7.334;2023-02-01T07:22:46;11.60;;;5.20;;
10811;SDS011;5458;51.496;7.334;2023-02-01T07:25:12;17.58;;;5.82;;
10811;SDS011;5458;51.496;7.334;2023-02-01T07:27:37;12.90;;;5.20;;
10811;SDS011;5458;51.496;7.334;2023-02-01T07:30:03;15.48;;;5.85;;
10811;SDS011;5458;51.496;7.334;2023-02-01T07:32:30;12.55;;;4.45;;
10811;SDS011;5458;51.496;7.334;2023-02-01T07:34:56;15.70;;;5.32;;
10811;SDS011;5458;51.496;7.334;2023-02-01T07:37:22;17.15;;;5.03;;
10811;SDS011;5458;51.496;7.334;2023-02-01T07:39:49;23.33;;;5.95;;
10811;SDS011;5458;51.496;7.334;2023-02-01T07:42:17;18.45;;;5.35;;
10811;SDS011;5458;51.496;7.334;2023-02-01T07:44:43;17.27;;;5.50;;
10811;SDS011;5458;51.496;7.334;2023-02-01T07:47:08;18.08;;;5.13;;
10811;SDS011;5458;51.496;7.334;2023-02-01T07:49:34;15.90;;;4.75;;
10811;SDS011;5458;51.496;7.334;2023-02-01T07:52:00;22.80;;;5.88;;
10811;SDS011;5458;51.496;7.334;2023-02-01T07:54:25;20.58;;;6.30;;
10811;SDS011;5458;51.496;7.334;2023-02-01T07:56:51;16.10;;;5.72;;
10811;SDS011;5458;51.496;7.334;2023-02-01T07:59:17;18.30;;;6.82;;
10811;SDS011;5458;51.496;7.334;2023-02-01T08:01:42;15.75;;;7.50;;
10811;SDS011;5458;51.496;7.334;2023-02-01T08:04:09;14.38;;;6.50;;
10811;SDS011;5458;51.496;7.334;2023-02-01T08:06:37;18.88;;;6.65;;
10811;SDS011;5458;51.496;7.334;2023-02-01T08:09:03;16.73;;;6.18;;
10811;SDS011;5458;51.496;7.334;2023-02-01T08:11:32;21.85;;;7.72;;
10811;SDS011;5458;51.496;7.334;2023-02-01T08:13:58;16.02;;;6.28;;
10811;SDS011;5458;51.496;7.334;2023-02-01T08:16:24;14.95;;;6.55;;
10811;SDS011;5458;51.496;7.334;2023-02-01T08:18:50;20.77;;;6.28;;
10811;SDS011;5458;51.496;7.334;2023-02-01T08:21:18;18.98;;;6.45;;
10811;SDS011;5458;51.496;7.334;2023-02-01T08:23:46;15.80;;;6.65;;
10811;SDS011;5458;51.496;7.334;2023-02-01T08:28:51;11.13;;;6.10;;
10811;SDS011;5458;51.496;7.334;2023-02-01T08:31:19;20.13;;;7.63;;
10811;SDS011;5458;51.496;7.334;2023-02-01T08:33:49;15.20;;;6.88;;
10811;SDS011;5458;51.496;7.334;2023-02-01T08:36:17;18.00;;;7.57;;
10811;SDS011;5458;51.496;7.334;2023-02-01T08:38:44;17.75;;;6.68;;
10811;SDS011;5458;51.496;7.334;2023-02-01T08:41:11;15.82;;;7.03;;
10811;SDS011;5458;51.496;7.334;2023-02-01T08:43:41;15.52;;;6.60;;
10811;SDS011;5458;51.496;7.334;2023-02-01T08:46:07;17.95;;;7.30;;
10811;SDS011;5458;51.496;7.334;2023-02-01T08:48:34;18.35;;;7.00;;
10811;SDS011;5458;51.496;7.334;2023-02-01T08:51:01;14.10;;;7.18;;
10811;SDS011;5458;51.496;7.334;2023-02-01T08:53:28;15.00;;;6.70;;
10811;SDS011;5458;51.496;7.334;2023-02-01T08:55:54;18.95;;;6.82;;
10811;SDS011;5458;51.496;7.334;2023-02-01T08:58:19;19.73;;;7.35;;
10811;SDS011;5458;51.496;7.334;2023-02-01T09:00:46;15.63;;;6.53;;
10811;SDS011;5458;51.496;7.334;2023-02-01T09:03:13;14.80;;;6.60;;
10811;SDS011;5458;51.496;7.334;2023-02-01T09:05:39;18.23;;;7.50;;
10811;SDS011;5458;51.496;7.334;2023-02-01T09:08:05;14.93;;;6.38;;
10811;SDS011;5458;51.496;7.334;2023-02-01T09:10:31;15.10;;;7.53;;
10811;SDS011;5458;51.496;7.334;2023-02-01T09:12:57;21.52;;;8.52;;
10811;SDS011;5458;51.496;7.334;2023-02-01T09:15:23;17.40;;;6.32;;
10811;SDS011;5458;51.496;7.334;2023-02-01T09:17:48;17.52;;;5.88;;
10811;SDS011;5458;51.496;7.334;2023-02-01T09:20:14;21.38;;;6.18;;
10811;SDS011;5458;51.496;7.334;2023-02-01T09:22:40;13.32;;;5.82;;
10811;SDS011;5458;51.496;7.334;2023-02-01T09:25:06;18.90;;;6.38;;
10811;SDS011;5458;51.496;7.334;2023-02-01T09:27:32;12.20;;;5.68;;
10811;SDS011;5458;51.496;7.334;2023-02-01T09:29:58;12.85;;;5.85;;
10811;SDS011;5458;51.496;7.334;2023-02-01T09:32:24;21.50;;;6.30;;
10811;SDS011;5458;51.496;7.334;2023-02-01T09:34:50;19.02;;;6.60;;
10811;SDS011;5458;51.496;7.334;2023-02-01T09:37:16;18.48;;;6.05;;
10811;SDS011;5458;51.496;7.334;2023-02-01T09:39:42;17.00;;;6.30;;
10811;SDS011;5458;51.496;7.334;2023-02-01T09:42:55;17.27;;;6.45;;
10811;SDS011;5458;51.496;7.334;2023-02-01T09:47:28;18.50;;;6.75;;
10811;SDS011;5458;51.496;7.334;2023-02-01T09:52:25;14.20;;;6.30;;
10811;SDS011;5458;51.496;7.334;2023-02-01T09:55:00;14.27;;;6.40;;
10811;SDS011;5458;51.496;7.334;2023-02-01T09:57:44;11.38;;;6.30;;
10811;SDS011;5458;51.496;7.334;2023-02-01T10:00:36;15.43;;;5.82;;
10811;SDS011;5458;51.496;7.334;2023-02-01T10:03:04;16.17;;;6.55;;
10811;SDS011;5458;51.496;7.334;2023-02-01T10:08:14;13.50;;;6.25;;
10811;SDS011;5458;51.496;7.334;2023-02-01T10:10:48;14.30;;;5.82;;
10811;SDS011;5458;51.496;7.334;2023-02-01T10:13:22;13.93;;;5.70;;
10811;SDS011;5458;51.496;7.334;2023-02-01T10:16:25;9.82;;;5.75;;
10811;SDS011;5458;51.496;7.334;2023-02-01T10:18:57;13.18;;;7.45;;
10811;SDS011;5458;51.496;7.334;2023-02-01T10:24:28;17.67;;;6.20;;
10811;SDS011;5458;51.496;7.334;2023-02-01T10:27:02;13.05;;;6.18;;
10811;SDS011;5458;51.496;7.334;2023-02-01T10:29:44;17.30;;;6.22;;
10811;SDS011;5458;51.496;7.334;2023-02-01T10:32:16;15.73;;;6.13;;
10811;SDS011;5458;51.496;7.334;2023-02-01T10:34:50;14.85;;;5.95;;
10811;SDS011;5458;51.496;7.334;2023-02-01T10:37:26;11.10;;;5.32;;
10811;SDS011;5458;51.496;7.334;2023-02-01T10:39:54;17.05;;;5.75;;
10811;SDS011;5458;51.496;7.334;2023-02-01T10:42:23;12.88;;;5.40;;
10811;SDS011;5458;51.496;7.334;2023-02-01T10:44:51;17.35;;;7.38;;
10811;SDS011;5458;51.496;7.334;2023-02-01T10:47:18;12.98;;;5.90;;
10811;SDS011;5458;51.496;7.334;2023-02-01T10:49:47;16.73;;;5.97;;
10811;SDS011;5458;51.496;7.334;2023-02-01T10:52:29;17.17;;;5.65;;
10811;SDS011;5458;51.496;7.334;2023-02-01T10:54:56;14.82;;;5.40;;
10811;SDS011;5458;51.496;7.334;2023-02-01T10:57:55;18.10;;;6.78;;
10811;SDS011;5458;51.496;7.334;2023-02-01T11:00:25;13.15;;;5.38;;
10811;SDS011;5458;51.496;7.334;2023-02-01T11:02:52;13.90;;;6.20;;
10811;SDS011;5458;51.496;7.334;2023-02-01T11:05:19;14.43;;;6.25;;
10811;SDS011;5458;51.496;7.334;2023-02-01T11:07:51;17.42;;;5.80;;
10811;SDS011;5458;51.496;7.334;2023-02-01T11:10:37;17.23;;;6.10;;
10811;SDS011;5458;51.496;7.334;2023-02-01T11:13:11;15.68;;;6.45;;
10811;SDS011;5458;51.496;7.334;2023-02-01T11:15:42;11.98;;;4.93;;
10811;SDS011;5458;51.496;7.334;2023-02-01T11:18:16;14.98;;;5.55;;
10811;SDS011;5458;51.496;7.334;2023-02-01T11:20:49;10.77;;;5.45;;
10811;SDS011;5458;51.496;7.334;2023-02-01T11:23:17;16.80;;;6.15;;
10811;SDS011;5458;51.496;7.334;2023-02-01T11:25:47;12.75;;;5.40;;
10811;SDS011;5458;51.496;7.334;2023-02-01T11:28:15;13.57;;;5.20;;
10811;SDS011;5458;51.496;7.334;2023-02-01T11:30:42;18.40;;;5.75;;
10811;SDS011;5458;51.496;7.334;2023-02-01T11:33:20;13.13;;;5.25;;
10811;SDS011;5458;51.496;7.334;2023-02-01T11:35:52;17.55;;;5.47;;
10811;SDS011;5458;51.496;7.334;2023-02-01T11:38:22;16.77;;;5.95;;
10811;SDS011;5458;51.496;7.334;2023-02-01T11:40:55;11.07;;;4.93;;
10811;SDS011;5458;51.496;7.334;2023-02-01T11:43:35;16.42;;;6.25;;
10811;SDS011;5458;51.496;7.334;2023-02-01T11:46:01;18.67;;;6.63;;
10811;SDS011;5458;51.496;7.334;2023-02-01T11:48:32;13.82;;;5.15;;
10811;SDS011;5458;51.496;7.334;2023-02-01T11:56:17;14.77;;;5.80;;
10811;SDS011;5458;51.496;7.334;2023-02-01T12:04:12;11.20;;;6.22;;
10811;SDS011;5458;51.496;7.334;2023-02-01T12:06:48;18.73;;;7.10;;
10811;SDS011;5458;51.496;7.334;2023-02-01T12:12:22;12.88;;;5.20;;
10811;SDS011;5458;51.496;7.334;2023-02-01T12:23:48;13.27;;;5.45;;
10811;SDS011;5458;51.496;7.334;2023-02-01T12:26:45;14.43;;;6.32;;
10811;SDS011;5458;51.496;7.334;2023-02-01T12:29:31;14.15;;;5.38;;
10811;SDS011;5458;51.496;7.334;2023-02-01T12:35:21;15.93;;;5.60;;
10811;SDS011;5458;51.496;7.334;2023-02-01T12:46:28;11.75;;;5.30;;
10811;SDS011;5458;51.496;7.334;2023-02-01T12:49:00;15.55;;;6.03;;
10811;SDS011;5458;51.496;7.334;2023-02-01T12:51:37;11.95;;;4.78;;
10811;SDS011;5458;51.496;7.334;2023-02-01T12:56:49;19.20;;;6.55;;
10811;SDS011;5458;51.496;7.334;2023-02-01T12:59:22;20.67;;;6.53;;
10811;SDS011;5458;51.496;7.334;2023-02-01T13:02:05;16.42;;;5.75;;
10811;SDS011;5458;51.496;7.334;2023-02-01T13:04:53;14.95;;;6.03;;
10811;SDS011;5458;51.496;7.334;2023-02-01T13:07:34;20.35;;;6.80;;
10811;SDS011;5458;51.496;7.334;2023-02-01T13:10:12;14.57;;;4.82;;
10811;SDS011;5458;51.496;7.334;2023-02-01T13:12:54;15.35;;;5.72;;
10811;SDS011;5458;51.496;7.334;2023-02-01T13:15:29;17.65;;;5.07;;
10811;SDS011;5458;51.496;7.334;2023-02-01T13:17:59;9.50;;;4.30;;
10811;SDS011;5458;51.496;7.334;2023-02-01T13:23:00;11.40;;;4.90;;
10811;SDS011;5458;51.496;7.334;2023-02-01T13:25:43;11.02;;;3.90;;
10811;SDS011;5458;51.496;7.334;2023-02-01T13:28:16;14.98;;;4.50;;
10811;SDS011;5458;51.496;7.334;2023-02-01T13:42:19;11.73;;;4.43;;
10811;SDS011;5458;51.496;7.334;2023-02-01T13:45:16;16.55;;;4.88;;
10811;SDS011;5458;51.496;7.334;2023-02-01T13:47:46;14.20;;;4.93;;
10811;SDS011;5458;51.496;7.334;2023-02-01T13:52:52;9.68;;;4.38;;
10811;SDS011;5458;51.496;7.334;2023-02-01T13:57:46;12.32;;;4.20;;
10811;SDS011;5458;51.496;7.334;2023-02-01T14:03:14;13.57;;;4.32;;
10811;SDS011;5458;51.496;7.334;2023-02-01T14:08:12;10.77;;;4.28;;
10811;SDS011;5458;51.496;7.334;2023-02-01T14:10:55;14.85;;;4.43;;
10811;SDS011;5458;51.496;7.334;2023-02-01T14:13:27;15.00;;;4.65;;
10811;SDS011;5458;51.496;7.334;2023-02-01T14:23:46;15.32;;;4.75;;
10811;SDS011;5458;51.496;7.334;2023-02-01T14:26:26;16.08;;;5.22;;
10811;SDS011;5458;51.496;7.334;2023-02-01T14:31:59;13.63;;;4.90;;
10811;SDS011;5458;51.496;7.334;2023-02-01T14:48:42;9.00;;;3.40;;
10811;SDS011;5458;51.496;7.334;2023-02-01T14:50:41;11.25;;;5.18;;
10811;SDS011;5458;51.496;7.334;2023-02-01T15:01:50;11.23;;;4.18;;
10811;SDS011;5458;51.496;7.334;2023-02-01T15:04:14;15.05;;;4.38;;
10811;SDS011;5458;51.496;7.334;2023-02-01T15:09:31;15.65;;;4.72;;
10811;SDS011;5458;51.496;7.334;2023-02-01T15:17:30;11.77;;;4.38;;
10811;SDS011;5458;51.496;7.334;2023-02-01T15:20:00;11.85;;;4.40;;
10811;SDS011;5458;51.496;7.334;2023-02-01T15:22:29;14.45;;;4.57;;
10811;SDS011;5458;51.496;7.334;2023-02-01T15:24:59;11.70;;;4.45;;
10811;SDS011;5458;51.496;7.334;2023-02-01T15:27:25;12.07;;;4.05;;
10811;SDS011;5458;51.496;7.334;2023-02-01T15:29:52;12.38;;;4.13;;
10811;SDS011;5458;51.496;7.334;2023-02-01T15:32:30;11.77;;;5.20;;
10811;SDS011;5458;51.496;7.334;2023-02-01T15:35:01;11.02;;;4.75;;
10811;SDS011;5458;51.496;7.334;2023-02-01T15:37:27;9.30;;;3.95;;
10811;SDS011;5458;51.496;7.334;2023-02-01T15:42:35;14.85;;;4.78;;
10811;SDS011;5458;51.496;7.334;2023-02-01T15:45:04;8.30;;;4.45;;
10811;SDS011;5458;51.496;7.334;2023-02-01T15:47:41;14.10;;;5.00;;
10811;SDS011;5458;51.496;7.334;2023-02-01T15:50:12;15.95;;;5.15;;
10811;SDS011;5458;51.496;7.334;2023-02-01T15:52:45;10.23;;;4.05;;
10811;SDS011;5458;51.496;7.334;2023-02-01T15:55:46;14.70;;;5.30;;
10811;SDS011;5458;51.496;7.334;2023-02-01T15:58:07;16.00;;;5.18;;
10811;SDS011;5458;51.496;7.334;2023-02-01T16:00:47;12.02;;;4.40;;
10811;SDS011;5458;51.496;7.334;2023-02-01T16:03:32;14.07;;;4.97;;
10811;SDS011;5458;51.496;7.334;2023-02-01T16:06:01;12.38;;;4.60;;
10811;SDS011;5458;51.496;7.334;2023-02-01T16:08:32;10.13;;;4.80;;
10811;SDS011;5458;51.496;7.334;2023-02-01T16:13:34;11.93;;;5.03;;
10811;SDS011;5458;51.496;7.334;2023-02-01T16:16:00;14.25;;;4.57;;
10811;SDS011;5458;51.496;7.334;2023-02-01T16:18:26;11.88;;;4.25;;
10811;SDS011;5458;51.496;7.334;2023-02-01T16:20:52;12.05;;;5.15;;
10811;SDS011;5458;51.496;7.334;2023-02-01T16:23:17;11.18;;;4.63;;
10811;SDS011;5458;51.496;7.334;2023-02-01T16:25:45;14.68;;;4.93;;
10811;SDS011;5458;51.496;7.334;2023-02-01T16:28:11;12.75;;;4.65;;
10811;SDS011;5458;51.496;7.334;2023-02-01T16:30:36;13.00;;;4.47;;
10811;SDS011;5458;51.496;7.334;2023-02-01T16:33:02;13.20;;;4.68;;
10811;SDS011;5458;51.496;7.334;2023-02-01T16:35:31;14.25;;;5.47;;
10811;SDS011;5458;51.496;7.334;2023-02-01T16:38:04;13.45;;;4.40;;
10811;SDS011;5458;51.496;7.334;2023-02-01T16:40:40;16.08;;;5.15;;
10811;SDS011;5458;51.496;7.334;2023-02-01T16:43:12;14.13;;;5.05;;
10811;SDS011;5458;51.496;7.334;2023-02-01T16:45:39;15.13;;;6.05;;
10811;SDS011;5458;51.496;7.334;2023-02-01T16:48:07;13.55;;;5.43;;
10811;SDS011;5458;51.496;7.334;2023-02-01T16:50:33;16.30;;;5.00;;
10811;SDS011;5458;51.496;7.334;2023-02-01T16:52:58;12.48;;;5.18;;
10811;SDS011;5458;51.496;7.334;2023-02-01T16:55:26;7.07;;;4.65;;
10811;SDS011;5458;51.496;7.334;2023-02-01T16:57:52;10.02;;;5.25;;
10811;SDS011;5458;51.496;7.334;2023-02-01T17:00:18;10.43;;;5.50;;
10811;SDS011;5458;51.496;7.334;2023-02-01T17:02:44;16.60;;;5.18;;
10811;SDS011;5458;51.496;7.334;2023-02-01T17:05:10;12.98;;;4.88;;
10811;SDS011;5458;51.496;7.334;2023-02-01T17:07:36;18.08;;;4.95;;
10811;SDS011;5458;51.496;7.334;2023-02-01T17:10:05;13.57;;;4.88;;
10811;SDS011;5458;51.496;7.334;2023-02-01T17:12:37;6.15;;;2.80;;
10811;SDS011;5458;51.496;7.334;2023-02-01T17:15:02;8.52;;;3.35;;
10811;SDS011;5458;51.496;7.334;2023-02-01T17:17:36;8.00;;;3.03;;
10811;SDS011;5458;51.496;7.334;2023-02-01T17:20:03;6.32;;;3.05;;
10811;SDS011;5458;51.496;7.334;2023-02-01T17:22:30;5.53;;;3.03;;
10811;SDS011;5458;51.496;7.334;2023-02-01T17:24:56;7.20;;;2.88;;
10811;SDS011;5458;51.496;7.334;2023-02-01T17:27:22;6.97;;;3.08;;
10811;SDS011;5458;51.496;7.334;2023-02-01T17:29:47;4.78;;;2.85;;
10811;SDS011;5458;51.496;7.334;2023-02-01T17:32:23;5.28;;;2.65;;
10811;SDS011;5458;51.496;7.334;2023-02-01T17:34:50;7.13;;;3.67;;